Time;durP1;ratioP1;P1;durP2;ratioP2;P2;SDS_P1;SDS_P2;PMS_P1;PMS_P2;Temp;Humidity;BMP_temperature;BMP_pressure;BME280_temperature;BME280_humidity;BME280_pressure;Samples;Min_cycle;Max_cycle;Signal;HPM_P1;HPM_P2
2022/04/25 00:00:05;;;;;;;362.98;174.63;;;;;;;17.39;68.13;98910.34;343893;28;971;-76
2022/04/25 00:00:16;;;;;;;362.35;172.80;;;;;;;17.38;68.22;98919.25;343929;28;900;-77
2022/04/25 00:00:27;;;;;;;362.27;171.30;;;;;;;17.37;68.47;98907.00;343959;28;1113;-77
2022/04/25 00:00:37;;;;;;;365.20;173.68;;;;;;;17.36;68.51;98905.31;342574;28;857;-77
2022/04/25 00:00:48;;;;;;;366.87;176.20;;;;;;;17.38;68.59;98915.78;346562;28;1300;-76
2022/04/25 00:00:58;;;;;;;368.63;177.67;;;;;;;17.34;68.54;98914.34;345048;28;1427;-77
2022/04/25 00:01:09;;;;;;;368.80;176.97;;;;;;;17.35;68.27;98908.91;341222;29;1237;-77
2022/04/25 00:01:19;;;;;;;369.13;179.18;;;;;;;17.35;68.11;98914.22;343922;28;1372;-77
2022/04/25 00:01:30;;;;;;;369.38;177.90;;;;;;;17.35;67.87;98913.38;343848;28;1513;-76
2022/04/25 00:01:40;;;;;;;366.43;176.40;;;;;;;17.35;68.04;98903.63;342505;28;1204;-76
2022/04/25 00:01:50;;;;;;;360.73;173.18;;;;;;;17.35;67.94;98911.56;343861;28;1382;-77
2022/04/25 00:02:01;;;;;;;362.60;173.63;;;;;;;17.35;67.87;98908.09;342624;28;810;-77
2022/04/25 00:02:11;;;;;;;366.37;173.07;;;;;;;17.35;67.80;98911.56;342781;28;838;-77
2022/04/25 00:02:22;;;;;;;371.00;174.30;;;;;;;17.35;68.10;98903.63;343840;28;1410;-77
2022/04/25 00:02:32;;;;;;;370.60;174.93;;;;;;;17.37;68.06;98911.44;346543;28;1185;-77
2022/04/25 00:02:42;;;;;;;369.92;178.55;;;;;;;17.36;68.17;98915.91;345066;28;1347;-77
2022/04/25 00:02:53;;;;;;;370.80;179.33;;;;;;;17.37;68.13;98917.56;342541;28;1193;-77
2022/04/25 00:03:03;;;;;;;370.33;179.88;;;;;;;17.36;68.03;98910.59;343888;28;1334;-77
2022/04/25 00:03:14;;;;;;;369.10;177.60;;;;;;;17.35;68.08;98908.91;342578;28;830;-77
2022/04/25 00:03:24;;;;;;;367.98;178.13;;;;;;;17.33;67.89;98908.19;341314;29;938;-78
2022/04/25 00:03:35;;;;;;;365.37;175.57;;;;;;;17.33;68.23;98908.19;343729;28;1411;-76
2022/04/25 00:03:45;;;;;;;365.70;175.77;;;;;;;17.35;67.86;98911.56;345219;28;1246;-76
2022/04/25 00:03:55;;;;;;;362.75;173.70;;;;;;;17.35;68.06;98911.56;341243;29;1230;-77
2022/04/25 00:04:06;;;;;;;362.87;175.73;;;;;;;17.33;68.28;98910.84;343760;28;1498;-78
2022/04/25 00:04:16;;;;;;;365.35;177.05;;;;;;;17.35;68.19;98908.09;345188;28;1243;-77
2022/04/25 00:04:27;;;;;;;364.30;177.27;;;;;;;17.36;68.24;98907.97;344411;28;1564;-77
2022/04/25 00:04:37;;;;;;;365.30;176.48;;;;;;;17.37;68.38;98912.28;341744;28;5069;-77
2022/04/25 00:04:47;;;;;;;363.13;175.03;;;;;;;17.33;68.61;98905.56;344081;28;1730;-78
2022/04/25 00:04:58;;;;;;;365.33;175.18;;;;;;;17.35;68.35;98914.22;343979;28;1803;-78
2022/04/25 00:05:08;;;;;;;365.17;178.83;;;;;;;17.35;68.24;98914.22;339921;28;1707;-78
2022/04/25 00:05:19;;;;;;;365.75;177.13;;;;;;;17.37;68.24;98908.81;341306;29;909;-78
2022/04/25 00:05:29;;;;;;;361.00;172.60;;;;;;;17.36;68.22;98915.06;342585;28;902;-78
2022/04/25 00:05:40;;;;;;;360.45;170.98;;;;;;;17.37;68.25;98912.28;345286;28;1222;-78
2022/04/25 00:05:50;;;;;;;361.90;170.43;;;;;;;17.36;68.42;98907.13;345163;28;1323;-78
2022/04/25 00:06:01;;;;;;;365.08;171.85;;;;;;;17.37;68.16;98904.34;346646;28;936;-76
2022/04/25 00:06:11;;;;;;;364.10;171.50;;;;;;;17.40;67.92;98912.03;341206;29;1326;-76
2022/04/25 00:06:22;;;;;;;360.13;170.38;;;;;;;17.35;68.08;98908.91;342615;28;825;-76
2022/04/25 00:06:32;;;;;;;358.90;171.80;;;;;;;17.41;68.14;98915.53;344488;28;1205;-76
2022/04/25 00:06:42;;;;;;;358.85;171.40;;;;;;;17.39;67.87;98910.34;343825;28;1189;-77
2022/04/25 00:06:53;;;;;;;362.17;174.57;;;;;;;17.39;68.05;98915.66;342527;28;1276;-77
2022/04/25 00:07:03;;;;;;;364.20;174.80;;;;;;;17.40;68.24;98911.19;342559;28;866;-77
2022/04/25 00:07:14;;;;;;;363.37;172.73;;;;;;;17.40;67.94;98922.63;342529;28;1043;-77
2022/04/25 00:07:24;;;;;;;362.27;172.13;;;;;;;17.41;68.34;98912.88;341684;29;1456;-76
2022/04/25 00:07:35;;;;;;;363.93;172.20;;;;;;;17.41;68.26;98918.19;341194;29;1499;-76
2022/04/25 00:07:45;;;;;;;366.40;175.88;;;;;;;17.40;68.39;98914.69;343833;28;1310;-78
2022/04/25 00:07:56;;;;;;;369.60;178.30;;;;;;;17.38;68.60;98913.97;343947;28;860;-77
2022/04/25 00:08:06;;;;;;;365.90;176.50;;;;;;;17.39;68.44;98915.66;343755;28;1384;-77
2022/04/25 00:08:17;;;;;;;366.50;174.75;;;;;;;17.36;68.47;98910.59;346648;28;896;-77
2022/04/25 00:08:27;;;;;;;364.95;171.38;;;;;;;17.38;68.73;98913.97;344594;28;1596;-77
2022/04/25 00:08:37;;;;;;;366.80;171.97;;;;;;;17.38;68.66;98913.13;342429;28;1273;-78
2022/04/25 00:08:48;;;;;;;367.70;170.80;;;;;;;17.37;68.56;98917.56;342614;28;798;-77
2022/04/25 00:08:58;;;;;;;366.80;172.30;;;;;;;17.36;68.79;98915.91;342468;28;1200;-77
2022/04/25 00:09:09;;;;;;;366.40;172.98;;;;;;;17.36;68.68;98909.75;344404;28;1687;-77
2022/04/25 00:09:19;;;;;;;365.67;173.17;;;;;;;17.38;68.71;98913.13;342860;28;1457;-78
2022/04/25 00:09:30;;;;;;;365.53;170.50;;;;;;;17.37;68.13;98912.28;343876;28;1636;-78
2022/04/25 00:09:40;;;;;;;361.30;168.48;;;;;;;17.39;67.88;98920.09;343972;28;797;-78
2022/04/25 00:09:50;;;;;;;358.40;168.57;;;;;;;17.37;67.61;98917.56;342554;28;1292;-78
2022/04/25 00:10:01;;;;;;;357.85;168.65;;;;;;;17.36;67.88;98910.59;345439;28;1336;-77
2022/04/25 00:10:13;;;;;;;360.23;166.40;;;;;;;17.36;68.35;98918.53;341346;28;1899;-77
2022/04/25 00:10:23;;;;;;;362.73;163.90;;;;;;;17.35;68.55;98914.22;339969;29;1312;-78
2022/04/25 00:10:34;;;;;;;364.45;164.65;;;;;;;17.32;68.28;98917.13;343921;28;1256;-77
2022/04/25 00:10:44;;;;;;;361.40;166.20;;;;;;;17.29;68.41;98915.56;342497;28;925;-77
2022/04/25 00:10:55;;;;;;;360.60;166.07;;;;;;;17.26;68.26;98909.69;343984;28;845;-77
2022/04/25 00:11:05;;;;;;;358.47;166.07;;;;;;;17.25;68.36;98916.78;342659;28;739;-77
2022/04/25 00:11:15;;;;;;;358.73;165.15;;;;;;;17.23;68.64;98920.50;343996;28;1211;-78
2022/04/25 00:11:26;;;;;;;358.67;164.87;;;;;;;17.22;68.67;98913.53;342681;28;786;-78
2022/04/25 00:11:36;;;;;;;358.25;162.57;;;;;;;17.22;68.71;98914.38;344044;28;877;-78
2022/04/25 00:11:47;;;;;;;362.80;161.13;;;;;;;17.22;68.73;98908.25;339923;29;1214;-77
2022/04/25 00:11:57;;;;;;;363.23;161.38;;;;;;;17.20;68.89;98915.44;341335;29;1469;-78
2022/04/25 00:12:08;;;;;;;368.17;164.23;;;;;;;17.19;68.92;98919.91;345206;28;1353;-77
2022/04/25 00:12:18;;;;;;;365.02;163.00;;;;;;;17.18;68.93;98909.44;345194;28;868;-77
2022/04/25 00:12:29;;;;;;;366.30;163.50;;;;;;;17.15;69.08;98914.97;342386;28;1295;-77
2022/04/25 00:12:39;;;;;;;362.80;160.85;;;;;;;17.17;69.14;98911.25;343916;28;1321;-77
2022/04/25 00:12:50;;;;;;;364.50;161.67;;;;;;;17.18;69.11;98917.38;341160;29;901;-77
2022/04/25 00:13:00;;;;;;;358.23;158.32;;;;;;;17.18;69.14;98912.94;342521;28;1387;-77
2022/04/25 00:13:11;;;;;;;359.77;158.57;;;;;;;17.16;68.98;98909.56;343739;28;1533;-77
2022/04/25 00:13:22;;;;;;;359.55;157.75;;;;;;;17.19;69.08;98919.91;343891;28;916;-77
2022/04/25 00:13:32;;;;;;;359.90;157.43;;;;;;;17.20;69.12;98920.75;345074;28;1235;-77
2022/04/25 00:13:43;;;;;;;356.80;158.60;;;;;;;17.21;69.20;98917.97;345227;28;3801;-77
2022/04/25 00:13:53;;;;;;;359.10;159.48;;;;;;;17.22;68.97;98926.75;344349;28;6154;-77
2022/04/25 00:14:06;;;;;;;356.83;160.37;;;;;;;17.22;69.02;98918.81;342542;28;1035;-77
2022/04/25 00:14:17;;;;;;;357.92;157.70;;;;;;;17.20;68.95;98911.00;341649;28;1075;-77
2022/04/25 00:14:27;;;;;;;359.67;157.53;;;;;;;17.18;68.80;98918.22;341169;28;2922;-77
2022/04/25 00:14:37;;;;;;;360.23;156.90;;;;;;;17.20;68.67;98920.75;341221;29;1173;-77
2022/04/25 00:14:48;;;;;;;358.50;158.30;;;;;;;17.19;68.72;98919.91;341859;28;4658;-77
2022/04/25 00:14:58;;;;;;;358.77;159.10;;;;;;;17.21;68.36;98917.97;344761;28;1643;-77
2022/04/25 00:15:09;;;;;;;366.30;159.23;;;;;;;17.16;68.58;98903.44;343659;28;1731;-77
2022/04/25 00:15:20;;;;;;;368.50;157.83;;;;;;;17.20;68.44;98918.09;345426;28;956;-77
2022/04/25 00:15:31;;;;;;;364.70;153.10;;;;;;;17.20;68.52;98915.44;346073;28;835;-77
2022/04/25 00:15:41;;;;;;;358.27;154.23;;;;;;;17.23;68.21;98915.22;341194;28;1295;-77
2022/04/25 00:15:55;;;;;;;355.10;154.18;;;;;;;17.23;68.45;98920.50;343799;28;1232;-77
2022/04/25 00:16:05;;;;;;;354.45;153.35;;;;;;;17.23;68.31;98917.84;343959;28;924;-77
2022/04/25 00:16:18;;;;;;;359.00;153.32;;;;;;;17.23;68.28;98915.22;342514;28;1456;-77
2022/04/25 00:16:28;;;;;;;363.05;155.63;;;;;;;17.20;68.51;98916.28;342792;28;1593;-77
2022/04/25 00:16:39;;;;;;;359.67;156.60;;;;;;;17.23;68.43;98917.84;342320;28;1497;-77
2022/04/25 00:16:55;;;;;;;355.03;155.40;;;;;;;17.22;68.51;98916.19;341135;29;868;-77
2022/04/25 00:17:06;;;;;;;355.95;153.85;;;;;;;17.23;68.49;98920.50;342470;28;1468;-77
2022/04/25 00:17:16;;;;;;;358.10;154.10;;;;;;;17.19;68.68;98913.78;343952;28;894;-77
2022/04/25 00:17:27;;;;;;;356.70;155.53;;;;;;;17.21;68.50;98912.69;345339;28;940;-77
2022/04/25 00:17:37;;;;;;;352.35;155.35;;;;;;;17.25;68.74;98913.28;342338;28;1570;-77
2022/04/25 00:17:47;;;;;;;353.43;156.17;;;;;;;17.24;68.92;98916.91;343860;28;1292;-77
2022/04/25 00:17:58;;;;;;;355.23;153.70;;;;;;;17.24;68.78;98914.25;342534;28;1699;-77
2022/04/25 00:18:08;;;;;;;357.45;155.35;;;;;;;17.25;68.38;98915.94;342497;28;1557;-77
2022/04/25 00:18:19;;;;;;;354.23;153.97;;;;;;;17.24;68.08;98917.75;343816;28;1172;-78
2022/04/25 00:18:29;;;;;;;353.92;154.50;;;;;;;17.26;67.93;98918.47;343897;28;790;-78
2022/04/25 00:18:40;;;;;;;356.63;154.83;;;;;;;17.25;68.05;98914.13;341320;29;913;-78
2022/04/25 00:18:50;;;;;;;358.35;154.77;;;;;;;17.23;68.08;98921.34;338542;29;1462;-78
2022/04/25 00:19:01;;;;;;;355.63;153.97;;;;;;;17.24;68.06;98911.59;342532;28;930;-78
2022/04/25 00:19:11;;;;;;;352.25;152.77;;;;;;;17.22;67.60;98914.38;347678;28;1235;-78
2022/04/25 00:19:24;;;;;;;354.20;154.27;;;;;;;17.24;67.89;98917.75;346376;28;1961;-78
2022/04/25 00:19:37;;;;;;;352.83;152.75;;;;;;;17.23;68.10;98920.50;344475;28;2098;-77
2022/04/25 00:19:48;;;;;;;355.02;151.60;;;;;;;17.25;68.26;98923.88;342509;28;1985;-77
2022/04/25 00:19:58;;;;;;;360.77;153.73;;;;;;;17.20;68.53;98913.66;342271;28;1205;-78
2022/04/25 00:20:10;;;;;;;359.23;153.85;;;;;;;17.19;68.56;98913.78;341128;29;1412;-78
2022/04/25 00:20:20;;;;;;;356.45;152.98;;;;;;;17.23;68.55;98923.16;342404;28;1368;-78
2022/04/25 00:20:31;;;;;;;355.87;152.97;;;;;;;17.20;68.72;98915.44;342607;28;996;-78
2022/04/25 00:20:41;;;;;;;359.17;153.23;;;;;;;17.19;68.71;98919.91;342711;28;1321;-78
2022/04/25 00:20:52;;;;;;;357.70;153.90;;;;;;;17.14;69.05;98910.66;342527;28;1184;-78
2022/04/25 00:21:02;;;;;;;358.17;154.50;;;;;;;17.18;68.92;98922.66;339994;29;3684;-77
2022/04/25 00:21:13;;;;;;;353.20;153.35;;;;;;;17.19;69.02;98919.06;344171;28;3466;-77
2022/04/25 00:21:23;;;;;;;353.23;153.90;;;;;;;17.17;68.69;98926.28;345325;28;1020;-77
2022/04/25 00:21:33;;;;;;;355.13;156.43;;;;;;;17.17;68.98;98915.69;342896;28;2136;-77
2022/04/25 00:21:44;;;;;;;356.37;158.07;;;;;;;17.16;68.75;98919.31;343804;28;1172;-77
2022/04/25 00:21:56;;;;;;;356.33;156.60;;;;;;;17.17;68.76;98920.97;345151;28;986;-77
2022/04/25 00:22:07;;;;;;;355.45;154.02;;;;;;;17.17;68.81;98918.34;338695;28;4291;-77
2022/04/25 00:22:17;;;;;;;355.42;152.65;;;;;;;17.16;68.61;98920.16;342345;28;1575;-77
2022/04/25 00:22:28;;;;;;;358.00;152.10;;;;;;;17.15;68.52;98923.75;345204;28;1154;-77
2022/04/25 00:22:38;;;;;;;355.48;150.30;;;;;;;17.14;68.65;98922.06;342528;28;1394;-77
2022/04/25 00:22:48;;;;;;;353.77;150.50;;;;;;;17.16;68.74;98914.84;343929;28;1682;-77
2022/04/25 00:23:04;;;;;;;351.27;150.30;;;;;;;17.15;68.48;98913.16;346202;28;2870;-78
2022/04/25 00:23:15;;;;;;;348.80;150.52;;;;;;;17.16;68.51;98919.31;345020;28;1835;-77
2022/04/25 00:23:25;;;;;;;355.58;152.88;;;;;;;17.18;68.48;98920.03;344753;28;1602;-77
2022/04/25 00:23:35;;;;;;;357.33;155.23;;;;;;;17.18;68.36;98915.56;343732;28;2033;-77
2022/04/25 00:23:46;;;;;;;359.48;156.52;;;;;;;17.19;68.62;98924.34;342412;28;3322;-77
2022/04/25 00:23:57;;;;;;;353.47;153.43;;;;;;;17.19;68.60;98916.41;342370;28;1264;-77
2022/04/25 00:24:08;;;;;;;355.48;154.02;;;;;;;17.20;68.79;98910.16;340787;28;4863;-77
2022/04/25 00:24:19;;;;;;;352.37;151.80;;;;;;;17.23;68.76;98925.78;343888;28;3151;-77
2022/04/25 00:24:29;;;;;;;355.02;151.23;;;;;;;17.21;69.07;98923.28;344395;28;1828;-77
2022/04/25 00:24:40;;;;;;;353.73;149.80;;;;;;;17.18;69.46;98917.38;340224;29;3147;-77
2022/04/25 00:24:51;;;;;;;350.45;149.68;;;;;;;17.18;69.41;98917.38;342906;28;1455;-77
2022/04/25 00:25:02;;;;;;;349.30;150.30;;;;;;;17.17;69.46;98920.97;347355;28;1417;-77
2022/04/25 00:25:13;;;;;;;348.17;151.10;;;;;;;17.16;69.51;98916.66;344280;28;1295;-77
2022/04/25 00:25:25;;;;;;;349.98;152.40;;;;;;;17.16;69.26;98914.84;341913;28;1339;-77
2022/04/25 00:25:36;;;;;;;347.13;149.35;;;;;;;17.14;69.52;98915.94;343499;28;857;-77
2022/04/25 00:25:46;;;;;;;349.73;148.27;;;;;;;17.14;69.68;98911.50;347679;28;1207;-77
2022/04/25 00:25:57;;;;;;;350.60;148.10;;;;;;;17.13;69.49;98914.25;345355;28;1204;-78
2022/04/25 00:26:07;;;;;;;353.03;151.73;;;;;;;17.09;69.27;98908.38;344317;28;1087;-78
2022/04/25 00:26:18;;;;;;;353.15;152.40;;;;;;;17.08;69.56;98917.25;342880;28;1331;-78
2022/04/25 00:26:28;;;;;;;354.55;153.65;;;;;;;17.08;69.59;98916.41;346791;28;1124;-78
2022/04/25 00:26:39;;;;;;;352.40;153.77;;;;;;;17.08;69.48;98916.41;345221;28;1490;-78
2022/04/25 00:26:49;;;;;;;356.00;155.38;;;;;;;17.07;69.53;98912.09;345032;28;1351;-78
2022/04/25 00:26:59;;;;;;;355.03;155.13;;;;;;;17.08;69.59;98922.53;343750;28;1337;-78
2022/04/25 00:27:12;;;;;;;357.50;154.07;;;;;;;17.09;69.78;98918.09;341204;28;1260;-78
2022/04/25 00:27:23;;;;;;;351.05;150.77;;;;;;;17.08;69.91;98922.53;343767;28;1636;-78
2022/04/25 00:27:33;;;;;;;351.60;150.55;;;;;;;17.08;69.48;98917.25;342458;28;1227;-78
2022/04/25 00:27:43;;;;;;;348.47;151.77;;;;;;;17.09;69.57;98916.28;340628;28;1616;-78
2022/04/25 00:27:54;;;;;;;348.42;151.77;;;;;;;17.10;69.62;98915.34;342434;28;1450;-78
2022/04/25 00:28:05;;;;;;;351.07;153.70;;;;;;;17.10;69.54;98912.69;343876;28;731;-78
2022/04/25 00:28:15;;;;;;;351.10;152.43;;;;;;;17.10;69.37;98919.78;343881;28;1248;-78
2022/04/25 00:28:26;;;;;;;350.75;152.05;;;;;;;17.10;69.66;98915.34;342510;28;1552;-78
2022/04/25 00:28:36;;;;;;;345.73;149.83;;;;;;;17.10;69.55;98922.44;346709;28;1328;-78
2022/04/25 00:28:46;;;;;;;347.03;152.67;;;;;;;17.10;69.62;98917.13;346570;28;919;-78
2022/04/25 00:28:57;;;;;;;348.52;153.55;;;;;;;17.06;69.56;98918.34;341206;28;1208;-78
2022/04/25 00:29:07;;;;;;;349.43;154.33;;;;;;;17.06;69.60;98919.19;343810;28;1192;-78
2022/04/25 00:29:18;;;;;;;351.17;153.38;;;;;;;17.07;69.73;98917.38;343962;28;774;-78
2022/04/25 00:29:29;;;;;;;351.23;154.00;;;;;;;17.08;69.75;98921.69;343133;28;967;-78
2022/04/25 00:29:39;;;;;;;355.35;154.73;;;;;;;17.08;68.50;98919.91;341321;28;1394;-78
2022/04/25 00:29:51;;;;;;;356.97;154.50;;;;;;;17.04;67.88;98915.81;346532;28;1291;-78
2022/04/25 00:30:02;;;;;;;358.15;151.38;;;;;;;17.04;67.98;98914.97;344873;28;1450;-78
2022/04/25 00:30:12;;;;;;;356.20;149.63;;;;;;;17.03;68.39;98914.13;343871;28;1293;-78
2022/04/25 00:30:24;;;;;;;354.98;149.98;;;;;;;17.05;67.94;98916.66;345161;28;1910;-78
2022/04/25 00:30:35;;;;;;;349.50;148.60;;;;;;;17.05;67.96;98916.66;343466;28;3887;-78
2022/04/25 00:30:47;;;;;;;344.17;145.70;;;;;;;17.05;68.50;98927.22;344220;28;2738;-78
2022/04/25 00:30:57;;;;;;;345.88;145.82;;;;;;;17.02;68.91;98923.03;342597;28;1147;-78
2022/04/25 00:31:08;;;;;;;351.53;150.23;;;;;;;16.98;69.02;98918.09;341053;28;3175;-78
2022/04/25 00:31:19;;;;;;;352.23;150.70;;;;;;;17.03;69.18;98918.56;346764;28;1335;-78
2022/04/25 00:31:30;;;;;;;346.58;150.20;;;;;;;17.05;69.18;98916.66;345196;28;865;-78
2022/04/25 00:31:40;;;;;;;347.73;149.75;;;;;;;17.04;69.31;98928.19;346605;28;923;-78
2022/04/25 00:31:51;;;;;;;351.63;152.13;;;;;;;17.01;69.19;98918.69;343841;28;1193;-78
2022/04/25 00:32:01;;;;;;;355.38;153.25;;;;;;;17.03;69.83;98923.88;342618;28;853;-78
2022/04/25 00:32:12;;;;;;;355.02;154.98;;;;;;;16.99;69.71;98920.63;343909;28;873;-78
2022/04/25 00:32:23;;;;;;;355.73;155.90;;;;;;;17.05;69.71;98921.94;342491;28;1172;-78
2022/04/25 00:32:33;;;;;;;353.98;154.63;;;;;;;17.05;69.81;98921.94;343397;28;1537;-78
2022/04/25 00:32:44;;;;;;;353.02;153.23;;;;;;;17.02;69.80;98922.19;341020;28;1227;-78
2022/04/25 00:32:55;;;;;;;354.27;152.90;;;;;;;17.06;69.91;98919.19;343864;28;880;-78
2022/04/25 00:33:06;;;;;;;354.55;153.57;;;;;;;17.08;69.90;98925.19;343893;28;852;-78
2022/04/25 00:33:16;;;;;;;355.73;153.80;;;;;;;17.08;70.11;98921.69;343861;28;1377;-78
2022/04/25 00:33:27;;;;;;;358.33;154.33;;;;;;;17.06;69.88;98919.19;339876;29;1113;-78
2022/04/25 00:33:37;;;;;;;359.97;153.23;;;;;;;17.08;70.21;98921.69;343839;28;1355;-78
2022/04/25 00:33:47;;;;;;;355.67;151.57;;;;;;;17.06;70.12;98923.63;344001;28;825;-78
2022/04/25 00:33:58;;;;;;;355.87;150.90;;;;;;;17.04;69.97;98920.25;343983;28;866;-78
2022/04/25 00:34:08;;;;;;;353.37;150.80;;;;;;;17.04;69.98;98922.91;342505;28;1208;-78
2022/04/25 00:34:19;;;;;;;356.60;154.30;;;;;;;17.02;70.04;98922.19;342513;28;893;-78
2022/04/25 00:34:29;;;;;;;356.83;158.43;;;;;;;17.03;70.47;98924.72;344979;28;1587;-78
2022/04/25 00:34:39;;;;;;;357.83;160.77;;;;;;;17.02;69.86;98917.75;346381;28;1339;-78
2022/04/25 00:34:50;;;;;;;355.87;156.27;;;;;;;17.02;69.85;98923.03;346405;28;1401;-77
2022/04/25 00:35:03;;;;;;;352.05;153.15;;;;;;;17.02;69.71;98925.66;347742;28;1333;-77
2022/04/25 00:35:13;;;;;;;350.13;150.80;;;;;;;17.02;69.59;98922.19;347995;28;951;-77
2022/04/25 00:35:24;;;;;;;351.70;152.10;;;;;;;17.04;69.74;98928.19;346489;28;1292;-77
2022/04/25 00:35:34;;;;;;;352.35;150.48;;;;;;;17.04;69.73;98920.25;343088;28;1595;-77
2022/04/25 00:35:44;;;;;;;354.87;152.50;;;;;;;17.04;69.66;98926.38;342520;28;1299;-77
2022/04/25 00:35:55;;;;;;;357.13;150.88;;;;;;;17.05;69.77;98919.31;341155;29;1215;-79
2022/04/25 00:36:05;;;;;;;358.83;152.50;;;;;;;17.04;69.88;98934.31;343777;28;1305;-78
2022/04/25 00:36:16;;;;;;;362.00;152.10;;;;;;;17.05;69.99;98927.22;342631;28;826;-78
2022/04/25 00:36:26;;;;;;;361.13;152.70;;;;;;;17.05;69.66;98922.78;342584;28;1331;-78
2022/04/25 00:36:37;;;;;;;361.57;150.70;;;;;;;17.03;69.89;98919.41;342567;28;1575;-78
2022/04/25 00:36:47;;;;;;;356.73;151.00;;;;;;;17.03;70.05;98921.22;345167;28;897;-78
2022/04/25 00:36:57;;;;;;;360.93;152.83;;;;;;;17.00;70.24;98921.47;342464;28;1164;-77
2022/04/25 00:37:08;;;;;;;359.90;151.38;;;;;;;17.01;70.08;98923.16;345140;28;1198;-77
2022/04/25 00:37:18;;;;;;;359.40;151.93;;;;;;;16.99;70.25;98917.13;343660;28;1669;-77
2022/04/25 00:37:29;;;;;;;354.87;152.07;;;;;;;17.00;70.45;98918.81;345024;28;1180;-77
2022/04/25 00:37:39;;;;;;;354.07;152.87;;;;;;;17.00;70.29;98922.31;342415;28;1720;-77
2022/04/25 00:37:50;;;;;;;354.77;151.47;;;;;;;16.99;70.33;98925.06;342032;28;869;-77
2022/04/25 00:38:00;;;;;;;357.65;151.15;;;;;;;16.99;70.46;98928.56;343802;28;1232;-77
2022/04/25 00:38:11;;;;;;;361.83;150.43;;;;;;;17.01;70.53;98921.34;341244;29;817;-77
2022/04/25 00:38:21;;;;;;;361.03;152.97;;;;;;;17.01;70.58;98928.44;342573;28;882;-77
2022/04/25 00:38:31;;;;;;;356.58;152.50;;;;;;;17.00;70.52;98924.09;342580;28;818;-77
2022/04/25 00:38:42;;;;;;;352.23;154.43;;;;;;;17.01;70.78;98925.78;342565;28;838;-77
2022/04/25 00:38:52;;;;;;;355.77;155.07;;;;;;;17.00;70.76;98929.38;342481;28;1048;-77
2022/04/25 00:39:02;;;;;;;354.55;154.00;;;;;;;17.00;70.91;98927.59;341258;29;1356;-77
2022/04/25 00:39:13;;;;;;;352.33;151.93;;;;;;;17.01;70.89;98923.16;343976;28;1176;-77
2022/04/25 00:39:24;;;;;;;349.05;149.15;;;;;;;17.01;70.56;98921.34;345316;28;833;-77
2022/04/25 00:39:35;;;;;;;349.27;149.27;;;;;;;17.00;70.50;98927.59;345159;28;975;-77
2022/04/25 00:39:45;;;;;;;348.80;150.95;;;;;;;17.02;70.28;98920.38;341066;28;3055;-77
2022/04/25 00:39:55;;;;;;;349.90;153.07;;;;;;;17.02;70.78;98923.03;343569;28;3084;-77
2022/04/25 00:40:08;;;;;;;354.83;156.03;;;;;;;17.04;70.59;98925.56;347740;28;2089;-77
2022/04/25 00:40:19;;;;;;;357.73;156.50;;;;;;;17.03;70.25;98924.72;344186;28;1547;-77
2022/04/25 00:40:29;;;;;;;356.45;153.57;;;;;;;17.05;70.03;98927.22;343873;28;822;-77
2022/04/25 00:40:40;;;;;;;354.45;153.98;;;;;;;17.02;69.95;98916.91;345136;28;1618;-77
2022/04/25 00:40:51;;;;;;;355.27;153.83;;;;;;;17.04;69.93;98925.56;342562;28;826;-77
2022/04/25 00:41:01;;;;;;;360.30;156.63;;;;;;;17.03;69.89;98919.41;341020;28;1266;-77
2022/04/25 00:41:12;;;;;;;360.40;155.17;;;;;;;17.03;70.11;98923.88;343811;28;1204;-77
2022/04/25 00:41:22;;;;;;;360.13;156.13;;;;;;;16.96;69.77;98913.78;345264;28;924;-77
2022/04/25 00:41:33;;;;;;;361.00;155.70;;;;;;;16.95;69.67;98925.31;346472;28;1534;-77
2022/04/25 00:41:43;;;;;;;359.13;156.35;;;;;;;16.98;69.76;98918.09;342572;28;2119;-77
2022/04/25 00:41:56;;;;;;;356.67;154.98;;;;;;;16.97;69.87;98919.91;341249;29;1124;-77
2022/04/25 00:42:06;;;;;;;353.33;154.77;;;;;;;17.01;69.47;98928.44;345751;28;1753;-78
2022/04/25 00:42:17;;;;;;;356.48;154.50;;;;;;;16.99;69.66;98927.72;345251;28;1539;-78
2022/04/25 00:42:27;;;;;;;359.23;152.63;;;;;;;17.00;69.94;98918.81;345119;28;707;-78
2022/04/25 00:42:38;;;;;;;358.35;153.80;;;;;;;16.96;70.28;98921.69;341834;28;1248;-78
2022/04/25 00:42:49;;;;;;;354.48;154.65;;;;;;;17.00;70.60;98927.59;342509;28;1347;-78
2022/04/25 00:42:59;;;;;;;356.33;155.60;;;;;;;16.98;70.77;98915.44;345271;28;802;-78
2022/04/25 00:43:09;;;;;;;359.92;154.43;;;;;;;16.96;70.80;98921.69;343198;28;1330;-78
2022/04/25 00:43:20;;;;;;;359.73;154.90;;;;;;;16.94;70.85;98926.25;346701;28;795;-78
2022/04/25 00:43:30;;;;;;;358.40;156.43;;;;;;;16.94;70.96;98928.91;343895;28;1016;-78
2022/04/25 00:43:40;;;;;;;355.53;158.13;;;;;;;16.95;70.42;98927.94;343746;28;1685;-78
2022/04/25 00:43:55;;;;;;;358.53;158.03;;;;;;;16.96;70.41;98928.78;343841;28;1365;-78
2022/04/25 00:44:05;;;;;;;359.08;155.63;;;;;;;16.95;70.19;98920.00;342535;28;879;-78
2022/04/25 00:44:16;;;;;;;358.50;156.17;;;;;;;16.92;70.15;98917.63;343877;28;924;-78
2022/04/25 00:44:26;;;;;;;356.98;156.98;;;;;;;16.94;70.09;98920.13;345696;28;1670;-77
2022/04/25 00:44:37;;;;;;;354.87;158.07;;;;;;;16.93;70.47;98929.88;342329;28;1203;-77
2022/04/25 00:44:47;;;;;;;351.52;155.68;;;;;;;16.94;70.68;98920.13;345147;28;1207;-77
2022/04/25 00:44:59;;;;;;;351.60;155.93;;;;;;;16.94;70.28;98920.97;346640;28;719;-77
2022/04/25 00:45:11;;;;;;;353.27;152.32;;;;;;;16.94;70.28;98922.78;345098;28;1011;-77
2022/04/25 00:45:21;;;;;;;353.83;150.85;;;;;;;16.95;70.39;98922.66;343862;28;1419;-77
2022/04/25 00:45:33;;;;;;;356.52;153.13;;;;;;;16.96;70.27;98924.34;342420;28;818;-78
2022/04/25 00:45:43;;;;;;;359.75;155.55;;;;;;;16.95;70.11;98921.81;343873;28;1433;-78
2022/04/25 00:45:54;;;;;;;359.77;155.90;;;;;;;16.90;70.32;98914.25;341119;28;1220;-78
2022/04/25 00:46:05;;;;;;;359.63;156.15;;;;;;;16.94;70.08;98923.63;343782;28;979;-78
2022/04/25 00:46:23;;;;;;;359.63;158.07;;;;;;;16.93;69.86;98929.88;343803;28;1160;-78
2022/04/25 00:46:33;;;;;;;354.13;155.18;;;;;;;16.93;69.98;98921.09;343814;28;865;-78
2022/04/25 00:46:44;;;;;;;354.23;153.85;;;;;;;16.93;69.97;98921.94;342238;28;1381;-78
2022/04/25 00:46:55;;;;;;;354.17;155.50;;;;;;;16.95;69.70;98927.09;344451;28;1674;-78
2022/04/25 00:47:06;;;;;;;357.15;157.88;;;;;;;16.97;69.70;98930.47;345145;28;1339;-78
2022/04/25 00:47:16;;;;;;;355.55;157.85;;;;;;;16.96;70.01;98923.50;342322;28;1416;-78
2022/04/25 00:47:27;;;;;;;357.60;157.97;;;;;;;16.98;69.56;98920.75;342364;28;815;-78
2022/04/25 00:47:38;;;;;;;360.08;156.75;;;;;;;16.98;69.67;98923.38;342257;28;1163;-78
2022/04/25 00:47:49;;;;;;;361.42;156.68;;;;;;;16.97;69.94;98925.19;343926;28;989;-78
2022/04/25 00:47:59;;;;;;;359.13;154.75;;;;;;;16.98;69.87;98918.09;346215;28;818;-78
2022/04/25 00:48:10;;;;;;;358.67;154.10;;;;;;;16.97;70.18;98919.91;343847;28;829;-78
2022/04/25 00:48:20;;;;;;;360.08;154.15;;;;;;;16.98;69.75;98915.44;345205;28;1259;-78
2022/04/25 00:48:31;;;;;;;362.40;156.63;;;;;;;16.96;70.28;98923.50;346503;28;1196;-78
2022/04/25 00:48:42;;;;;;;358.05;157.40;;;;;;;16.95;70.15;98922.66;345258;28;888;-78
2022/04/25 00:48:52;;;;;;;358.83;157.90;;;;;;;16.96;70.22;98929.63;342915;28;3070;-78
2022/04/25 00:49:03;;;;;;;359.00;160.70;;;;;;;16.98;70.40;98926.03;343758;28;4436;-77
2022/04/25 00:49:14;;;;;;;362.95;163.02;;;;;;;16.96;70.35;98913.78;344233;28;1832;-77
2022/04/25 00:49:25;;;;;;;361.55;161.35;;;;;;;16.96;70.00;98923.50;342238;28;2410;-77